Time;durP1;ratioP1;P1;durP2;ratioP2;P2;SDS_P1;SDS_P2;PMS_P1;PMS_P2;Temp;Humidity;BMP_temperature;BMP_pressure;BME280_temperature;BME280_humidity;BME280_pressure;Samples;Min_cycle;Max_cycle;Signal;HPM_P1;HPM_P2
2023/09/13 00:00:30;;;;;;;16.40;14.80;;;;;;;16.97;100.00;97658.31;106971;1278;25307;-86
2023/09/13 00:03:18;;;;;;;18.90;13.50;;;;;;;16.90;100.00;97659.91;107006;1277;25287;-86
2023/09/13 00:05:47;;;;;;;16.50;14.60;;;;;;;16.91;100.00;97659.11;107113;1277;23276;-86
2023/09/13 00:08:15;;;;;;;15.00;13.60;;;;;;;16.95;100.00;97661.30;107104;1278;25407;-86
2023/09/13 00:10:45;;;;;;;16.30;14.60;;;;;;;16.89;100.00;97662.05;107538;1277;22643;-86
2023/09/13 00:13:13;;;;;;;16.30;14.60;;;;;;;16.87;100.00;97660.05;107101;1277;22531;-85
2023/09/13 00:15:45;;;;;;;17.10;15.20;;;;;;;16.81;100.00;97658.44;106867;1260;22609;-85
2023/09/13 00:18:15;;;;;;;15.90;13.90;;;;;;;16.75;100.00;97653.27;106902;1277;22737;-85
2023/09/13 00:20:43;;;;;;;16.30;13.70;;;;;;;16.68;100.00;97655.14;107180;1277;24305;-84
2023/09/13 00:23:11;;;;;;;16.20;14.60;;;;;;;16.62;100.00;97650.08;107086;1278;22608;-85
2023/09/13 00:25:39;;;;;;;16.20;14.70;;;;;;;16.54;100.00;97652.09;107123;1278;25402;-85
2023/09/13 00:28:07;;;;;;;17.00;14.30;;;;;;;16.52;100.00;97648.91;106835;1277;228673;-85
2023/09/13 00:30:36;;;;;;;16.80;13.70;;;;;;;16.55;100.00;97650.02;106883;1277;22643;-85
2023/09/13 00:33:04;;;;;;;17.40;14.20;;;;;;;16.56;100.00;97642.81;106962;1278;22555;-85
2023/09/13 00:35:32;;;;;;;15.60;14.20;;;;;;;16.46;100.00;97642.29;107052;1262;22534;-84
2023/09/13 00:38:00;;;;;;;16.80;15.20;;;;;;;16.39;100.00;97638.27;107071;1277;25345;-85
2023/09/13 00:40:28;;;;;;;16.80;14.30;;;;;;;16.45;100.00;97637.53;106807;1277;22603;-85
2023/09/13 00:42:59;;;;;;;15.60;13.90;;;;;;;16.54;100.00;97633.27;106831;1277;22596;-85
2023/09/13 00:45:30;;;;;;;15.40;13.80;;;;;;;16.51;100.00;97634.14;106945;1278;25307;-85
2023/09/13 00:47:58;;;;;;;15.10;13.70;;;;;;;16.44;100.00;97633.39;106961;1277;23883;-84
2023/09/13 00:50:27;;;;;;;15.30;13.80;;;;;;;16.37;100.00;97630.98;106936;1277;25245;-85
2023/09/13 00:53:10;;;;;;;16.10;14.40;;;;;;;16.25;100.00;97631.27;107353;1278;24195;-85
2023/09/13 00:55:39;;;;;;;16.20;14.50;;;;;;;16.16;100.00;97631.46;107029;1278;25328;-85
2023/09/13 00:58:07;;;;;;;15.50;14.10;;;;;;;16.11;100.00;97629.30;106911;1277;25496;-85
2023/09/13 01:00:37;;;;;;;15.40;14.00;;;;;;;16.09;100.00;97633.19;107515;1278;22529;-85
2023/09/13 01:03:07;;;;;;;15.50;13.90;;;;;;;16.13;100.00;97641.30;110101;1277;22541;-86
2023/09/13 01:05:37;;;;;;;16.50;14.10;;;;;;;16.20;100.00;97645.23;109402;1278;25222;-85
2023/09/13 01:08:05;;;;;;;15.80;13.80;;;;;;;16.27;100.00;97642.83;110132;1278;22544;-84
2023/09/13 01:10:33;;;;;;;18.30;13.50;;;;;;;16.33;100.00;97641.75;108473;1278;22676;-85
2023/09/13 01:17:38;;;;;;;15.20;13.60;;;;;;;16.19;100.00;97636.03;107066;1277;25319;-85
2023/09/13 01:20:10;;;;;;;15.40;13.60;;;;;;;16.15;100.00;97638.33;107098;1277;22534;-84
2023/09/13 01:23:02;;;;;;;15.30;13.60;;;;;;;16.13;100.00;97631.61;107069;1277;23885;-85
2023/09/13 01:25:53;;;;;;;16.40;14.60;;;;;;;16.08;100.00;97628.48;107098;1277;24256;-85
2023/09/13 01:28:27;;;;;;;14.30;12.90;;;;;;;16.01;100.00;97626.63;106888;1271;25241;-86
2023/09/13 01:30:56;;;;;;;;;;;;;;;15.95;100.00;97629.26;107130;1277;22542;-86
2023/09/13 01:33:24;;;;;;;16.30;14.30;;;;;;;15.86;100.00;97631.08;107427;1278;22537;-85
2023/09/13 01:35:52;;;;;;;14.90;13.40;;;;;;;15.83;100.00;97629.48;107592;1277;25078;-86
2023/09/13 01:38:20;;;;;;;15.90;14.40;;;;;;;15.87;100.00;97631.09;107009;1277;22579;-86
2023/09/13 01:40:51;;;;;;;16.30;14.60;;;;;;;15.91;100.00;97630.06;107120;1277;25262;-86
2023/09/13 01:43:20;;;;;;;15.90;14.40;;;;;;;15.87;100.00;97630.10;107072;1278;22647;-87
2023/09/13 01:45:50;;;;;;;14.70;13.40;;;;;;;15.82;100.00;97626.45;109127;1278;22431;-85
2023/09/13 01:48:20;;;;;;;15.60;14.00;;;;;;;15.83;100.00;97623.61;110498;1277;22260;-86
2023/09/13 01:50:49;;;;;;;14.10;12.60;;;;;;;15.90;100.00;97625.67;108252;1277;22566;-86
2023/09/13 01:53:17;;;;;;;16.20;13.60;;;;;;;15.90;100.00;97625.59;107220;1277;24803;-86
2023/09/13 01:55:45;;;;;;;14.20;12.90;;;;;;;15.83;100.00;97629.80;107088;1277;23271;-85
2023/09/13 01:58:13;;;;;;;13.00;11.70;;;;;;;15.79;100.00;97628.13;106946;1278;22565;-85
2023/09/13 02:00:41;;;;;;;13.80;12.40;;;;;;;15.74;100.00;97628.75;106805;1267;22609;-86
2023/09/13 02:03:09;;;;;;;15.00;13.60;;;;;;;15.69;100.00;97631.14;107116;1254;22783;-87
2023/09/13 02:05:38;;;;;;;14.70;13.30;;;;;;;15.66;100.00;97625.96;106917;1277;24266;-86
2023/09/13 02:08:06;;;;;;;15.50;14.10;;;;;;;15.63;100.00;97626.89;106990;1275;22661;-86
2023/09/13 02:10:34;;;;;;;15.80;14.20;;;;;;;15.58;100.00;97625.80;107235;1277;25407;-86
2023/09/13 02:13:02;;;;;;;16.10;14.40;;;;;;;15.54;100.00;97631.55;107312;1277;22583;-86
2023/09/13 02:15:31;;;;;;;15.00;13.60;;;;;;;15.55;100.00;97630.88;107084;1277;24190;-86
2023/09/13 02:17:59;;;;;;;16.30;14.70;;;;;;;15.59;100.00;97628.84;107448;1277;22715;-87
2023/09/13 02:20:27;;;;;;;15.10;13.40;;;;;;;15.61;100.00;97628.83;107079;1277;22526;-85
2023/09/13 02:22:55;;;;;;;17.70;13.90;;;;;;;15.67;100.00;97630.12;107151;1277;25494;-86
2023/09/13 02:25:23;;;;;;;14.70;13.30;;;;;;;15.75;100.00;97630.16;106929;1278;23525;-86
2023/09/13 02:27:51;;;;;;;13.70;12.30;;;;;;;15.79;100.00;97626.11;106941;1277;22765;-86
2023/09/13 02:30:20;;;;;;;15.00;13.60;;;;;;;15.83;100.00;97624.53;106901;1277;23342;-86
2023/09/13 02:32:49;;;;;;;15.50;14.10;;;;;;;15.86;100.00;97624.61;107043;1277;22600;-87
2023/09/13 02:35:17;;;;;;;15.70;14.00;;;;;;;15.78;100.00;97626.63;106925;1277;22654;-85
2023/09/13 02:37:45;;;;;;;15.10;13.60;;;;;;;15.79;100.00;97625.16;107300;1277;22570;-87
2023/09/13 02:40:14;;;;;;;14.20;12.80;;;;;;;15.84;100.00;97621.85;106967;1277;22629;-86
2023/09/13 02:42:43;;;;;;;14.10;12.70;;;;;;;15.91;100.00;97629.61;107017;1277;22618;-86
2023/09/13 02:45:12;;;;;;;14.30;12.20;;;;;;;15.89;100.00;97627.36;107084;1277;23897;-86
2023/09/13 02:47:41;;;;;;;14.40;12.80;;;;;;;15.84;100.00;97624.02;106874;1277;24332;-85
2023/09/13 02:50:11;;;;;;;14.20;12.70;;;;;;;15.82;100.00;97625.02;106860;1277;22557;-87
2023/09/13 02:52:40;;;;;;;14.00;12.30;;;;;;;15.80;100.00;97624.05;106892;1277;24206;-86
2023/09/13 02:55:08;;;;;;;15.40;13.40;;;;;;;15.78;100.00;97626.45;107119;1277;22542;-85
2023/09/13 02:57:36;;;;;;;14.60;13.20;;;;;;;15.74;100.00;97624.40;107105;1277;22526;-86
2023/09/13 03:00:06;;;;;;;15.00;13.50;;;;;;;15.76;100.00;97624.20;107506;1277;22534;-86
2023/09/13 03:02:37;;;;;;;14.70;13.30;;;;;;;15.73;100.00;97624.52;107075;1278;22531;-87
2023/09/13 03:05:06;;;;;;;14.80;13.40;;;;;;;15.67;100.00;97621.14;106865;1277;22533;-87
2023/09/13 03:07:37;;;;;;;14.10;12.80;;;;;;;15.65;100.00;97619.20;107019;1277;23019;-87
2023/09/13 03:10:05;;;;;;;14.20;12.80;;;;;;;15.70;100.00;97617.84;107018;1277;25474;-86
2023/09/13 03:12:33;;;;;;;13.50;12.20;;;;;;;15.67;100.00;97618.87;107065;1277;23420;-86
2023/09/13 03:15:05;;;;;;;14.30;12.90;;;;;;;15.62;100.00;97615.66;106912;1267;22668;-86
2023/09/13 03:17:33;;;;;;;14.90;13.50;;;;;;;15.51;100.00;97615.31;106834;1277;22539;-85
2023/09/13 03:20:01;;;;;;;14.60;13.10;;;;;;;15.44;100.00;97614.15;106968;1266;24093;-86
2023/09/13 03:22:30;;;;;;;14.00;12.60;;;;;;;15.37;100.00;97616.34;106836;1277;24014;-85
2023/09/13 03:24:58;;;;;;;16.10;13.20;;;;;;;15.30;100.00;97615.02;107109;1277;22645;-85
2023/09/13 03:27:27;;;;;;;15.20;13.70;;;;;;;15.24;100.00;97616.29;107012;1277;22568;-86
2023/09/13 03:29:55;;;;;;;15.70;12.90;;;;;;;15.21;100.00;97614.63;107105;1277;25292;-86
2023/09/13 03:32:23;;;;;;;14.90;13.20;;;;;;;15.20;100.00;97616.84;107086;1277;22665;-86
2023/09/13 03:34:53;;;;;;;15.60;14.00;;;;;;;15.21;100.00;97619.05;106969;1277;25389;-86
2023/09/13 03:38:02;;;;;;;13.90;12.60;;;;;;;15.26;100.00;97621.62;106857;1277;22547;-87
2023/09/13 03:40:51;;;;;;;16.00;14.20;;;;;;;15.22;100.00;97616.83;106643;1282;24266;-87
2023/09/13 03:43:19;;;;;;;18.60;16.50;;;;;;;15.16;100.00;97609.31;107086;1282;22549;-87
2023/09/13 03:45:48;;;;;;;15.60;14.20;;;;;;;15.08;100.00;97608.05;106607;1282;22535;-87
2023/09/13 03:48:16;;;;;;;17.20;13.80;;;;;;;15.02;100.00;97609.23;106664;1282;24197;-88
2023/09/13 03:50:44;;;;;;;14.90;13.40;;;;;;;15.00;100.00;97615.13;107584;1282;22550;-85
2023/09/13 03:53:12;;;;;;;15.50;14.00;;;;;;;14.97;100.00;97609.47;107362;1282;22618;-87
2023/09/13 03:55:41;;;;;;;14.80;13.30;;;;;;;15.00;100.00;97610.66;106788;1282;22501;-86
2023/09/13 03:58:09;;;;;;;16.70;13.50;;;;;;;15.04;100.00;97609.85;106775;1282;25298;-87
2023/09/13 04:00:38;;;;;;;14.60;12.90;;;;;;;15.02;100.00;97613.25;106732;1282;25227;-87
2023/09/13 04:03:06;;;;;;;13.90;12.50;;;;;;;15.00;100.00;97612.52;106668;1282;22519;-88
2023/09/13 04:05:35;;;;;;;14.00;12.80;;;;;;;14.99;100.00;97609.29;106711;1282;24174;-87
2023/09/13 04:08:03;;;;;;;16.00;13.50;;;;;;;14.97;100.00;97609.09;106550;1282;22711;-87
2023/09/13 04:10:31;;;;;;;15.60;13.60;;;;;;;14.99;100.00;97608.98;106620;1282;22597;-87
2023/09/13 04:13:00;;;;;;;14.40;13.00;;;;;;;15.05;100.00;97612.48;107030;1277;23817;-88
2023/09/13 04:15:28;;;;;;;14.60;13.00;;;;;;;15.05;100.00;97611.27;108075;1277;22533;-86
2023/09/13 04:17:58;;;;;;;23.70;21.20;;;;;;;15.03;100.00;97611.84;107059;1277;22732;-88
2023/09/13 04:20:26;;;;;;;16.20;14.70;;;;;;;14.99;100.00;97608.45;106946;1277;22573;-89
2023/09/13 04:22:54;;;;;;;14.40;13.10;;;;;;;14.98;100.00;97607.63;106970;1277;25394;-88
2023/09/13 04:25:22;;;;;;;14.60;13.30;;;;;;;14.95;100.00;97611.88;107507;1278;22538;-88
2023/09/13 04:27:50;;;;;;;14.70;12.80;;;;;;;14.90;100.00;97607.11;107105;1277;24336;-86
2023/09/13 04:30:19;;;;;;;15.10;13.40;;;;;;;14.84;100.00;97607.06;106808;1277;22858;-88
2023/09/13 04:32:47;;;;;;;15.00;12.80;;;;;;;14.84;100.00;97611.61;107021;1277;25341;-88
2023/09/13 04:35:17;;;;;;;14.40;12.30;;;;;;;14.84;100.00;97613.20;106854;1276;22588;-87
2023/09/13 04:37:45;;;;;;;16.90;12.80;;;;;;;14.85;100.00;97613.50;107114;1277;22556;-88
2023/09/13 04:40:13;;;;;;;14.60;13.00;;;;;;;14.86;100.00;97611.30;106987;1263;22669;-86
2023/09/13 04:42:50;;;;;;;15.40;13.10;;;;;;;14.88;100.00;97607.45;107107;1277;22530;-87
2023/09/13 04:45:19;;;;;;;14.30;12.30;;;;;;;14.90;100.00;97606.34;107136;1277;22580;-89
2023/09/13 04:47:47;;;;;;;15.60;13.00;;;;;;;14.93;100.00;97608.68;107942;1277;22711;-88
2023/09/13 04:50:16;;;;;;;15.60;13.20;;;;;;;14.93;100.00;97612.42;109207;1278;22572;-88
2023/09/13 04:52:44;;;;;;;13.60;12.20;;;;;;;14.99;100.00;97613.79;109033;1277;24604;-87
2023/09/13 04:55:12;;;;;;;14.70;13.00;;;;;;;15.07;100.00;97615.79;109871;1278;25397;-89
2023/09/13 04:57:41;;;;;;;13.70;12.30;;;;;;;15.15;100.00;97612.23;109728;1277;22580;-88
2023/09/13 05:00:11;;;;;;;14.80;12.60;;;;;;;15.22;100.00;97615.20;107455;1277;22808;-89
2023/09/13 05:02:39;;;;;;;14.80;13.10;;;;;;;15.28;100.00;97612.67;106904;1277;25288;-90
2023/09/13 05:05:10;;;;;;;17.90;13.00;;;;;;;15.31;100.00;97611.08;107073;1277;22575;-90
2023/09/13 05:07:38;;;;;;;16.30;12.70;;;;;;;15.37;100.00;97611.99;107151;1277;25179;-89
2023/09/13 05:10:06;;;;;;;17.90;12.60;;;;;;;15.43;100.00;97616.74;107629;1277;25720;-89
2023/09/13 05:12:34;;;;;;;15.80;13.40;;;;;;;15.50;100.00;97619.48;106943;1277;22540;-89
2023/09/13 05:15:03;;;;;;;17.50;11.90;;;;;;;15.60;100.00;97616.30;106872;1277;22521;-89
2023/09/13 05:17:31;;;;;;;18.30;12.20;;;;;;;15.70;100.00;97616.58;108157;1277;22507;-89
2023/09/13 05:19:59;;;;;;;14.50;12.00;;;;;;;15.84;100.00;97619.59;108006;1277;22534;-88
2023/09/13 05:22:27;;;;;;;13.30;12.00;;;;;;;15.96;100.00;97617.61;106970;1277;23905;-88
2023/09/13 05:24:55;;;;;;;14.20;12.70;;;;;;;16.01;100.00;97612.75;106892;1277;25405;-88
2023/09/13 05:27:23;;;;;;;14.90;12.10;;;;;;;16.05;100.00;97614.11;106924;1277;25342;-89
2023/09/13 05:29:52;;;;;;;15.40;12.10;;;;;;;16.12;100.00;97611.38;107037;1277;22805;-87
2023/09/13 05:32:20;;;;;;;15.50;13.60;;;;;;;16.21;100.00;97612.66;107124;1278;24206;-88
2023/09/13 05:34:49;;;;;;;15.80;12.40;;;;;;;16.28;100.00;97607.73;107106;1277;25475;-87
2023/09/13 05:37:17;;;;;;;15.70;12.80;;;;;;;16.37;100.00;97607.08;106991;1278;22578;-86
2023/09/13 05:39:45;;;;;;;14.30;12.40;;;;;;;16.49;100.00;97602.44;106958;1278;22737;-88
2023/09/13 05:42:13;;;;;;;17.10;11.50;;;;;;;16.61;100.00;97603.41;107080;1278;24372;-89
2023/09/13 05:44:41;;;;;;;15.30;11.70;;;;;;;16.73;100.00;97604.55;107119;1266;22531;-88
2023/09/13 05:47:09;;;;;;;16.30;12.70;;;;;;;16.86;100.00;97604.52;107119;1278;24142;-88
2023/09/13 05:49:37;;;;;;;20.40;12.70;;;;;;;17.01;100.00;97600.83;106862;1278;22628;-87
2023/09/13 05:52:05;;;;;;;17.00;13.40;;;;;;;17.17;100.00;97605.35;108133;1278;22564;-89
2023/09/13 05:55:27;;;;;;;17.30;13.20;;;;;;;17.31;100.00;97603.61;107314;1278;24205;-89
2023/09/13 05:57:56;;;;;;;17.40;14.00;;;;;;;17.53;100.00;97605.35;107169;1278;22559;-88
2023/09/13 06:00:25;;;;;;;19.50;15.00;;;;;;;17.71;100.00;97608.05;107418;1277;22771;-88
2023/09/13 06:02:53;;;;;;;18.90;15.00;;;;;;;17.90;100.00;97607.50;107440;1277;25560;-88
2023/09/13 06:05:21;;;;;;;21.00;16.60;;;;;;;18.07;100.00;97604.78;107269;1278;22582;-88
2023/09/13 06:07:50;;;;;;;20.10;15.90;;;;;;;18.23;100.00;97608.16;107106;1278;24747;-89
2023/09/13 06:10:20;;;;;;;19.20;14.80;;;;;;;18.40;100.00;97613.76;107145;1277;22538;-89
2023/09/13 06:12:48;;;;;;;17.90;14.60;;;;;;;18.56;100.00;97616.90;107113;1278;24871;-88
2023/09/13 06:15:18;;;;;;;18.30;14.90;;;;;;;18.76;100.00;97615.15;106951;1278;24199;-88
2023/09/13 06:17:46;;;;;;;20.90;13.40;;;;;;;18.95;100.00;97619.05;106936;1277;22520;-89
2023/09/13 06:20:14;;;;;;;17.10;14.20;;;;;;;19.11;100.00;97616.93;107191;1278;24380;-89
2023/09/13 06:22:42;;;;;;;17.70;15.00;;;;;;;19.27;100.00;97620.27;107219;1277;22645;-89
2023/09/13 06:25:10;;;;;;;23.50;14.50;;;;;;;19.43;100.00;97621.58;107133;1277;25500;-90
2023/09/13 06:27:38;;;;;;;17.60;13.80;;;;;;;19.61;100.00;97620.26;107053;1277;22601;-88
2023/09/13 06:30:07;;;;;;;22.30;14.80;;;;;;;19.79;100.00;97624.22;107043;1277;25338;-89
2023/09/13 06:32:35;;;;;;;18.00;16.00;;;;;;;19.95;100.00;97625.27;107034;1278;24767;-89
2023/09/13 06:35:13;;;;;;;23.80;15.30;;;;;;;20.12;100.00;97625.14;107687;1277;22537;-88
2023/09/13 06:37:44;;;;;;;19.50;14.30;;;;;;;20.29;100.00;97624.83;107178;1270;22536;-87
2023/09/13 06:40:15;;;;;;;19.70;13.20;;;;;;;20.43;100.00;97626.77;106860;1277;24213;-88
2023/09/13 06:42:43;;;;;;;14.90;10.30;;;;;;;20.60;100.00;97622.95;106970;1278;24268;-88
2023/09/13 06:45:14;;;;;;;15.10;11.40;;;;;;;20.75;100.00;97621.88;107015;1277;24224;-89
2023/09/13 06:47:53;;;;;;;19.80;10.60;;;;;;;20.89;100.00;97627.13;107226;1278;22538;-87
2023/09/13 06:50:21;;;;;;;17.80;10.90;;;;;;;21.00;100.00;97624.52;107075;1277;22517;-88
2023/09/13 06:53:09;;;;;;;16.90;10.60;;;;;;;21.14;100.00;97629.30;107006;1277;25352;-87
2023/09/13 06:55:58;;;;;;;16.10;9.40;;;;;;;21.28;100.00;97631.87;107154;1277;22617;-88
2023/09/13 06:58:31;;;;;;;;;;;;;;;21.41;100.00;97635.08;106913;1277;25224;-87
2023/09/13 07:01:01;;;;;;;21.50;10.50;;;;;;;21.52;100.00;97640.12;107020;1267;22587;-87
2023/09/13 07:03:32;;;;;;;18.40;9.90;;;;;;;21.62;100.00;97647.90;106937;1278;22543;-87
2023/09/13 07:06:02;;;;;;;20.00;10.10;;;;;;;21.71;100.00;97648.37;107265;1277;22538;-89
2023/09/13 07:08:31;;;;;;;17.00;9.70;;;;;;;21.81;100.00;97647.51;107788;1277;23170;-87
2023/09/13 07:11:00;;;;;;;20.40;9.90;;;;;;;21.89;100.00;97651.27;107461;1277;25937;-87
2023/09/13 07:13:29;;;;;;;17.70;9.70;;;;;;;21.99;100.00;97653.69;107633;1277;22499;-87
2023/09/13 07:15:57;;;;;;;14.90;9.30;;;;;;;22.05;100.00;97656.56;107399;1277;22743;-87
2023/09/13 07:18:25;;;;;;;14.90;9.50;;;;;;;22.11;100.00;97656.60;107765;1277;25211;-86
2023/09/13 07:20:54;;;;;;;19.00;9.60;;;;;;;22.20;100.00;97651.91;107130;1277;23122;-87
2023/09/13 07:23:22;;;;;;;19.40;9.60;;;;;;;22.31;100.00;97648.30;107208;1277;22613;-87
2023/09/13 07:25:50;;;;;;;16.40;9.30;;;;;;;22.40;100.00;97653.69;107400;1277;22548;-87
2023/09/13 07:28:20;;;;;;;18.60;9.50;;;;;;;22.49;100.00;97653.13;106986;1277;24220;-87
2023/09/13 07:30:48;;;;;;;14.10;9.20;;;;;;;22.59;99.93;97651.38;107019;1266;22522;-88
2023/09/13 07:33:16;;;;;;;15.70;9.00;;;;;;;22.69;98.87;97654.09;107110;1277;24174;-87
2023/09/13 07:35:44;;;;;;;18.10;9.50;;;;;;;22.79;98.49;97657.75;107074;1277;22651;-87
2023/09/13 07:38:12;;;;;;;17.30;9.30;;;;;;;22.90;97.97;97656.63;107093;1277;22548;-88
2023/09/13 07:40:41;;;;;;;14.50;8.90;;;;;;;23.00;96.74;97666.02;106937;1278;24240;-87
2023/09/13 07:43:09;;;;;;;18.60;10.80;;;;;;;23.06;95.01;97668.41;107008;1278;22547;-86
2023/09/13 07:45:37;;;;;;;21.70;10.20;;;;;;;23.10;94.34;97666.23;107107;1277;22549;-86
2023/09/13 07:48:05;;;;;;;17.70;9.30;;;;;;;23.22;94.89;97669.49;106991;1278;22618;-87
2023/09/13 07:50:38;;;;;;;14.10;9.50;;;;;;;23.35;93.44;97664.89;106840;1265;25419;-86
2023/09/13 07:53:07;;;;;;;20.60;9.90;;;;;;;23.45;93.20;97665.55;107056;1278;22527;-86
2023/09/13 07:55:36;;;;;;;17.50;9.80;;;;;;;23.53;92.73;97665.95;107001;1277;22652;-86
2023/09/13 07:58:06;;;;;;;19.80;9.90;;;;;;;23.64;92.47;97665.80;106995;1277;24328;-87
2023/09/13 08:00:34;;;;;;;20.40;10.70;;;;;;;23.73;91.99;97670.65;107766;1277;22572;-87
2023/09/13 08:03:04;;;;;;;26.70;11.00;;;;;;;23.79;91.09;97664.21;107172;1278;23134;-87
2023/09/13 08:05:33;;;;;;;19.50;10.90;;;;;;;23.92;91.34;97663.42;106983;1277;22520;-88
2023/09/13 08:08:01;;;;;;;18.10;9.80;;;;;;;24.04;90.78;97665.78;106958;1277;22562;-87
2023/09/13 08:10:29;;;;;;;18.50;10.30;;;;;;;24.13;89.40;97663.73;107066;1277;25277;-85
2023/09/13 08:12:57;;;;;;;18.30;10.20;;;;;;;24.25;89.89;97662.55;107123;1277;22654;-87
2023/09/13 08:15:25;;;;;;;22.20;10.50;;;;;;;24.37;87.30;97661.98;107049;1278;25440;-87
2023/09/13 08:18:13;;;;;;;18.50;9.10;;;;;;;24.40;82.94;97666.23;107111;1277;25470;-86
2023/09/13 08:20:42;;;;;;;18.60;9.40;;;;;;;24.45;84.07;97663.09;106988;1277;24841;-86
2023/09/13 08:23:10;;;;;;;12.10;9.40;;;;;;;24.51;82.29;97658.52;106988;1277;25412;-87
2023/09/13 08:25:39;;;;;;;14.20;9.90;;;;;;;24.59;83.49;97652.75;107234;1277;24719;-88
2023/09/13 08:28:07;;;;;;;13.90;9.70;;;;;;;24.71;84.13;97650.44;107200;1277;22647;-86
2023/09/13 08:30:35;;;;;;;19.60;9.40;;;;;;;24.80;81.63;97657.10;106900;1277;22576;-85
2023/09/13 08:33:06;;;;;;;18.40;9.30;;;;;;;24.88;82.65;97651.56;107081;1277;22542;-86
2023/09/13 08:35:35;;;;;;;19.10;9.70;;;;;;;24.93;80.85;97650.91;106999;1278;22652;-85
2023/09/13 08:38:04;;;;;;;18.50;9.30;;;;;;;25.02;82.09;97651.83;107181;1277;22554;-84
2023/09/13 08:40:33;;;;;;;17.10;8.70;;;;;;;25.14;79.58;97656.60;107766;1277;22566;-85
2023/09/13 08:43:02;;;;;;;15.30;9.00;;;;;;;25.18;76.48;97655.56;108086;1277;23895;-86
2023/09/13 08:45:31;;;;;;;14.80;8.80;;;;;;;25.23;76.28;97652.14;108285;1278;25414;-84
2023/09/13 08:48:01;;;;;;;14.20;8.20;;;;;;;25.25;73.44;97646.46;108514;1277;25339;-86
2023/09/13 08:50:31;;;;;;;18.10;9.40;;;;;;;25.34;75.02;97655.86;107153;1277;24578;-85
2023/09/13 08:53:01;;;;;;;14.00;9.00;;;;;;;25.42;72.49;97657.95;107073;1277;26036;-86
2023/09/13 08:55:31;;;;;;;15.70;8.90;;;;;;;25.46;72.00;97654.92;107516;1278;24363;-86
2023/09/13 08:58:01;;;;;;;13.30;8.10;;;;;;;25.54;72.06;97656.54;107535;1278;22493;-86
2023/09/13 09:00:39;;;;;;;15.10;9.10;;;;;;;25.62;69.47;97654.05;107766;1278;22931;-84
2023/09/13 09:03:11;;;;;;;13.60;8.20;;;;;;;25.69;69.28;97653.67;107203;1278;22569;-86
2023/09/13 09:05:40;;;;;;;13.00;8.10;;;;;;;25.78;68.64;97651.39;107199;1277;22523;-86
2023/09/13 09:08:10;;;;;;;14.00;8.80;;;;;;;25.83;68.40;97653.04;107124;1277;26603;-86
2023/09/13 09:10:39;;;;;;;14.10;8.80;;;;;;;25.91;68.82;97650.86;106957;1277;22742;-86
2023/09/13 09:13:10;;;;;;;16.20;9.20;;;;;;;26.02;68.99;97648.64;107080;1277;24275;-86
2023/09/13 09:15:40;;;;;;;18.30;8.90;;;;;;;26.09;66.51;97646.30;106979;1277;22579;-86
2023/09/13 09:18:10;;;;;;;16.40;9.60;;;;;;;26.16;66.88;97643.63;107105;1277;22551;-86
2023/09/13 09:20:39;;;;;;;14.40;8.70;;;;;;;26.20;65.07;97646.41;106993;1277;24196;-86
2023/09/13 09:23:08;;;;;;;19.10;8.90;;;;;;;26.24;65.86;97646.79;107153;1277;22683;-86
2023/09/13 09:25:39;;;;;;;12.90;8.80;;;;;;;26.27;63.14;97645.02;107207;1278;22599;-85
2023/09/13 09:28:07;;;;;;;16.20;8.60;;;;;;;26.32;63.72;97644.73;107446;1278;23400;-85
2023/09/13 09:30:36;;;;;;;14.60;8.70;;;;;;;26.42;64.21;97648.02;107129;1254;24247;-85
2023/09/13 09:33:06;;;;;;;15.40;8.80;;;;;;;26.52;64.10;97643.20;107085;1277;22530;-85
2023/09/13 09:35:36;;;;;;;16.30;9.50;;;;;;;26.60;64.49;97641.64;106981;1277;24190;-84
2023/09/13 09:38:23;;;;;;;13.80;8.90;;;;;;;26.71;63.72;97638.90;106906;1277;25502;-83
2023/09/13 09:40:59;;;;;;;15.80;8.00;;;;;;;26.83;64.00;97641.13;106979;1277;24257;-82
2023/09/13 09:43:28;;;;;;;16.00;9.50;;;;;;;26.89;60.71;97643.75;106846;1277;22527;-83
2023/09/13 09:45:57;;;;;;;14.00;8.30;;;;;;;26.83;61.08;97642.32;107000;1277;22527;-83
2023/09/13 09:48:26;;;;;;;15.30;9.20;;;;;;;26.76;60.10;97639.40;106860;1278;22542;-84
2023/09/13 09:50:55;;;;;;;18.20;9.00;;;;;;;26.82;62.15;97643.52;106825;1277;25338;-84
2023/09/13 09:53:24;;;;;;;19.60;8.70;;;;;;;27.00;62.37;97643.38;107025;1277;23883;-84
2023/09/13 09:55:52;;;;;;;17.30;9.10;;;;;;;27.17;61.91;97643.25;107140;1278;25511;-85
2023/09/13 09:58:22;;;;;;;20.80;9.90;;;;;;;27.30;61.14;97643.48;107157;1277;25357;-84
2023/09/13 10:00:52;;;;;;;15.30;9.90;;;;;;;27.37;61.93;97641.41;107566;1277;23691;-83
2023/09/13 10:03:22;;;;;;;15.00;9.10;;;;;;;27.50;61.33;97642.95;107023;1278;22564;-84
2023/09/13 10:05:52;;;;;;;15.80;9.30;;;;;;;27.59;61.53;97641.02;106977;1278;22609;-84
2023/09/13 10:08:47;;;;;;;14.40;9.50;;;;;;;27.70;59.80;97641.32;107218;1277;22748;-83
2023/09/13 10:11:21;;;;;;;14.80;9.00;;;;;;;27.69;60.26;97640.09;106983;1278;22607;-83
2023/09/13 10:13:49;;;;;;;14.20;9.20;;;;;;;27.78;59.13;97641.77;107198;1278;22530;-84
2023/09/13 10:16:18;;;;;;;18.00;8.80;;;;;;;27.75;57.75;97638.96;107106;1278;22523;-85
2023/09/13 10:18:48;;;;;;;15.00;8.80;;;;;;;27.75;56.56;97640.14;107594;1278;25268;-84
2023/09/13 10:21:25;;;;;;;18.90;9.40;;;;;;;27.73;57.10;97639.08;107146;1278;25281;-84
2023/09/13 10:24:02;;;;;;;18.40;8.90;;;;;;;27.75;57.36;97635.64;106950;1278;25379;-84
2023/09/13 10:26:31;;;;;;;13.60;8.40;;;;;;;27.88;56.24;97640.45;107018;1256;22582;-84
2023/09/13 10:29:17;;;;;;;11.90;8.20;;;;;;;27.81;55.29;97634.28;107130;1278;22578;-85
2023/09/13 10:31:55;;;;;;;14.20;8.90;;;;;;;27.86;56.69;97634.46;107246;1277;25237;-85
2023/09/13 10:34:26;;;;;;;29.70;15.40;;;;;;;28.00;56.88;97630.49;106962;1278;24214;-85
2023/09/13 10:37:32;;;;;;;16.90;11.00;;;;;;;28.17;56.26;97632.58;107140;1278;22613;-85
2023/09/13 10:40:12;;;;;;;17.90;9.50;;;;;;;28.30;55.73;97631.40;106968;1278;24467;-85
2023/09/13 10:42:42;;;;;;;17.50;9.40;;;;;;;28.36;56.03;97637.56;107145;1278;22762;-84
2023/09/13 10:45:14;;;;;;;18.60;8.90;;;;;;;28.42;56.13;97633.59;107204;1278;25406;-83
2023/09/13 10:47:42;;;;;;;19.40;11.20;;;;;;;28.46;55.34;97632.49;107163;1277;22526;-84
2023/09/13 10:50:14;;;;;;;15.90;9.80;;;;;;;28.52;55.89;97630.16;107140;1277;22531;-84
2023/09/13 10:52:44;;;;;;;16.00;9.20;;;;;;;28.61;56.13;97626.98;107724;1277;22555;-85
2023/09/13 10:55:13;;;;;;;24.10;10.30;;;;;;;28.74;56.35;97625.87;107004;1277;24236;-85
2023/09/13 10:57:43;;;;;;;16.00;9.90;;;;;;;28.89;55.77;97627.21;106941;1278;22521;-85
2023/09/13 11:00:11;;;;;;;14.20;8.70;;;;;;;28.98;55.53;97623.46;107017;1278;24240;-85
2023/09/13 11:02:42;;;;;;;14.10;8.30;;;;;;;29.04;54.02;97621.23;106841;1277;22517;-84
2023/09/13 11:05:12;;;;;;;20.70;9.10;;;;;;;29.09;53.89;97623.02;107027;1278;22554;-84
2023/09/13 11:07:43;;;;;;;17.90;9.50;;;;;;;29.10;52.89;97621.25;107050;1277;22530;-84
2023/09/13 11:10:13;;;;;;;20.40;8.60;;;;;;;29.05;54.14;97619.23;107023;1278;22580;-85
2023/09/13 11:12:48;;;;;;;14.60;8.50;;;;;;;29.15;53.05;97616.63;107068;1278;22546;-84
2023/09/13 11:15:26;;;;;;;12.40;7.00;;;;;;;29.22;52.55;97616.41;107126;1278;22816;-85
2023/09/13 11:18:25;;;;;;;12.80;7.60;;;;;;;29.27;51.73;97615.98;106969;1278;24419;-86
2023/09/13 11:20:53;;;;;;;11.00;7.40;;;;;;;29.34;51.49;97617.09;106995;1272;22561;-86
2023/09/13 11:23:22;;;;;;;19.60;8.50;;;;;;;29.42;50.44;97612.85;107037;1278;22530;-84
2023/09/13 11:26:04;;;;;;;12.10;7.50;;;;;;;29.45;49.35;97620.80;107024;1278;23307;-85